Time;durP1;ratioP1;P1;durP2;ratioP2;P2;SDS_P1;SDS_P2;PMS_P1;PMS_P2;Temp;Humidity;BMP_temperature;BMP_pressure;BME280_temperature;BME280_humidity;BME280_pressure;Samples;Min_cycle;Max_cycle;Signal;HPM_P1;HPM_P2
2023/02/28 00:01:27;;;;;;;5.45;3.53;;;;;;;;;;5035738;28;20307;-79
2023/02/28 00:03:52;;;;;;;3.80;2.70;;;;;;;;;;5043222;28;20133;-72
2023/02/28 00:06:17;;;;;;;4.50;3.00;;;;;;;;;;5047783;28;20274;-71
2023/02/28 00:08:43;;;;;;;4.50;3.28;;;;;;;;;;5052697;28;20614;-71
2023/02/28 00:11:09;;;;;;;5.22;3.90;;;;;;;;;;5053951;28;20186;-73
2023/02/28 00:13:37;;;;;;;4.22;2.85;;;;;;;;;;5071245;28;20112;-77
2023/02/28 00:16:03;;;;;;;4.07;3.35;;;;;;;;;;5049607;28;20028;-73
2023/02/28 00:18:28;;;;;;;4.05;3.40;;;;;;;;;;5036128;28;20071;-76
2023/02/28 00:20:53;;;;;;;3.85;2.92;;;;;;;;;;5068944;28;20032;-75
2023/02/28 00:23:19;;;;;;;4.85;3.35;;;;;;;;;;5071076;28;20056;-78
2023/02/28 00:25:44;;;;;;;3.70;2.90;;;;;;;;;;5052665;28;20032;-74
2023/02/28 00:28:09;;;;;;;3.70;2.90;;;;;;;;;;5053472;28;20028;-70
2023/02/28 00:30:34;;;;;;;3.63;3.17;;;;;;;;;;5052822;28;20032;-76
2023/02/28 00:33:00;;;;;;;4.07;3.40;;;;;;;;;;5051254;28;20393;-75
2023/02/28 00:35:25;;;;;;;4.00;3.27;;;;;;;;;;5037022;28;20270;-72
2023/02/28 00:37:50;;;;;;;3.70;2.63;;;;;;;;;;5066389;28;20328;-70
2023/02/28 00:40:15;;;;;;;4.13;3.05;;;;;;;;;;5063815;28;20033;-74
2023/02/28 00:42:41;;;;;;;4.55;3.22;;;;;;;;;;5052609;28;20086;-74
2023/02/28 00:45:07;;;;;;;4.40;3.33;;;;;;;;;;5048249;28;20083;-75
2023/02/28 00:47:32;;;;;;;3.72;2.88;;;;;;;;;;5059297;28;20278;-65
2023/02/28 00:49:58;;;;;;;4.45;3.35;;;;;;;;;;5070275;28;20039;-71
2023/02/28 00:52:23;;;;;;;4.40;3.13;;;;;;;;;;5052104;28;20520;-74
2023/02/28 00:54:48;;;;;;;4.13;3.05;;;;;;;;;;5070524;28;20278;-76
2023/02/28 00:57:13;;;;;;;3.87;2.80;;;;;;;;;;5067904;28;20484;-69
2023/02/28 00:59:39;;;;;;;3.30;2.70;;;;;;;;;;5046487;28;20786;-77
2023/02/28 01:02:04;;;;;;;3.93;2.90;;;;;;;;;;5068512;28;20301;-70
2023/02/28 01:04:29;;;;;;;4.63;3.20;;;;;;;;;;5062701;28;20074;-69
2023/02/28 01:06:54;;;;;;;4.38;2.83;;;;;;;;;;5037958;28;20338;-74
2023/02/28 01:09:20;;;;;;;4.03;3.03;;;;;;;;;;5068291;28;20028;-77
2023/02/28 01:11:45;;;;;;;3.80;2.90;;;;;;;;;;5048423;28;20275;-69
2023/02/28 01:14:13;;;;;;;4.15;3.20;;;;;;;;;;5059091;28;20359;-73
2023/02/28 01:16:38;;;;;;;3.95;3.10;;;;;;;;;;5049845;28;20028;-75
2023/02/28 01:19:04;;;;;;;3.60;2.90;;;;;;;;;;5052011;28;20052;-67
2023/02/28 01:21:30;;;;;;;4.40;3.15;;;;;;;;;;5051243;28;20284;-70
2023/02/28 01:23:56;;;;;;;4.97;3.20;;;;;;;;;;5044013;28;20037;-74
2023/02/28 01:26:21;;;;;;;4.55;3.25;;;;;;;;;;5068610;28;20039;-77
2023/02/28 01:28:47;;;;;;;3.55;2.78;;;;;;;;;;5044067;28;20416;-72
2023/02/28 01:31:12;;;;;;;4.22;2.92;;;;;;;;;;5049093;28;20037;-70
2023/02/28 01:33:38;;;;;;;3.53;2.85;;;;;;;;;;5046060;28;20115;-76
2023/02/28 01:36:04;;;;;;;3.70;2.85;;;;;;;;;;5067315;28;20029;-72
2023/02/28 01:38:29;;;;;;;3.67;2.90;;;;;;;;;;5050957;28;20090;-75
2023/02/28 01:40:54;;;;;;;4.03;2.97;;;;;;;;;;5051785;28;20032;-76
2023/02/28 01:43:27;;;;;;;4.70;3.37;;;;;;;;;;5047573;28;20311;-75
2023/02/28 01:45:52;;;;;;;3.45;2.88;;;;;;;;;;5063985;28;20337;-73
2023/02/28 01:48:17;;;;;;;5.20;3.25;;;;;;;;;;5060974;28;20067;-77
2023/02/28 01:50:43;;;;;;;4.37;2.90;;;;;;;;;;5051131;28;20504;-73
2023/02/28 01:53:10;;;;;;;3.05;2.53;;;;;;;;;;5035316;28;20705;-77
2023/02/28 01:55:35;;;;;;;3.65;2.85;;;;;;;;;;5051534;28;20115;-70
2023/02/28 01:58:02;;;;;;;4.77;3.00;;;;;;;;;;5061942;28;20055;-76
2023/02/28 02:00:27;;;;;;;4.50;3.20;;;;;;;;;;5048987;28;20275;-75
2023/02/28 02:02:57;;;;;;;3.27;2.57;;;;;;;;;;5047713;28;20482;-71
2023/02/28 02:05:23;;;;;;;4.07;3.28;;;;;;;;;;5047717;28;20289;-68
2023/02/28 02:07:50;;;;;;;3.92;2.90;;;;;;;;;;5061022;28;20114;-75
2023/02/28 02:10:20;;;;;;;4.22;3.20;;;;;;;;;;5048986;28;20049;-80
2023/02/28 02:13:04;;;;;;;4.13;3.17;;;;;;;;;;5029212;28;20058;-71
2023/02/28 02:15:42;;;;;;;4.03;3.22;;;;;;;;;;5057229;28;20115;-75
2023/02/28 02:18:27;;;;;;;4.10;3.17;;;;;;;;;;5071811;28;20029;-71
2023/02/28 02:21:11;;;;;;;4.20;3.47;;;;;;;;;;5070214;28;20127;-75
2023/02/28 02:23:49;;;;;;;3.70;3.00;;;;;;;;;;5069108;28;20027;-76
2023/02/28 02:26:22;;;;;;;4.22;3.10;;;;;;;;;;5050852;28;20469;-64
2023/02/28 02:29:06;;;;;;;4.28;3.15;;;;;;;;;;5038335;28;20120;-72
2023/02/28 02:31:31;;;;;;;3.88;3.03;;;;;;;;;;5068998;28;20107;-72
2023/02/28 02:34:06;;;;;;;3.67;3.00;;;;;;;;;;5067937;28;20056;-78
2023/02/28 02:36:42;;;;;;;4.45;3.10;;;;;;;;;;5059705;28;20034;-69
2023/02/28 02:39:14;;;;;;;3.97;3.10;;;;;;;;;;5058795;28;20068;-68
2023/02/28 02:41:51;;;;;;;4.47;3.25;;;;;;;;;;5050919;28;20047;-73
2023/02/28 02:44:30;;;;;;;3.33;2.90;;;;;;;;;;5053870;28;20036;-71
2023/02/28 02:46:58;;;;;;;4.10;3.08;;;;;;;;;;5049988;28;20036;-75
2023/02/28 02:49:24;;;;;;;3.90;3.20;;;;;;;;;;5037880;28;20028;-74
2023/02/28 02:51:50;;;;;;;3.70;3.17;;;;;;;;;;5071363;28;20044;-76
2023/02/28 02:54:17;;;;;;;3.60;3.00;;;;;;;;;;5072908;28;20069;-71
2023/02/28 02:56:43;;;;;;;4.53;3.42;;;;;;;;;;5049730;28;21406;-75
2023/02/28 02:59:09;;;;;;;3.70;2.95;;;;;;;;;;5033147;28;20048;-67
2023/02/28 03:01:34;;;;;;;5.82;3.10;;;;;;;;;;5037732;28;20186;-66
2023/02/28 03:04:03;;;;;;;4.40;2.97;;;;;;;;;;5072602;28;20649;-75
2023/02/28 03:06:29;;;;;;;3.90;3.05;;;;;;;;;;5040018;28;20428;-64
2023/02/28 03:08:54;;;;;;;3.43;2.93;;;;;;;;;;5048146;28;20728;-74
2023/02/28 03:11:20;;;;;;;4.07;3.13;;;;;;;;;;5046145;28;20306;-75
2023/02/28 03:13:54;;;;;;;4.00;3.33;;;;;;;;;;5040399;28;20283;-76
2023/02/28 03:16:29;;;;;;;4.05;3.03;;;;;;;;;;5071044;28;20036;-68
2023/02/28 03:18:57;;;;;;;4.15;3.17;;;;;;;;;;5072349;28;20024;-65
2023/02/28 03:21:25;;;;;;;3.60;2.90;;;;;;;;;;5046437;28;20078;-66
2023/02/28 03:23:54;;;;;;;4.65;3.38;;;;;;;;;;5071403;28;20020;-74
2023/02/28 03:26:20;;;;;;;3.75;3.10;;;;;;;;;;5036423;28;21083;-70
2023/02/28 03:29:12;;;;;;;4.10;3.03;;;;;;;;;;5047442;28;20033;-71
2023/02/28 03:31:41;;;;;;;4.97;3.22;;;;;;;;;;5044852;28;20041;-70
2023/02/28 03:34:39;;;;;;;4.60;3.53;;;;;;;;;;5046156;28;20048;-71
2023/02/28 03:37:05;;;;;;;4.05;3.28;;;;;;;;;;5009715;28;20058;-70
2023/02/28 03:39:32;;;;;;;4.10;3.38;;;;;;;;;;5048684;28;20028;-73
2023/02/28 03:41:58;;;;;;;4.00;3.25;;;;;;;;;;5054392;28;20032;-78
2023/02/28 03:44:28;;;;;;;4.45;3.47;;;;;;;;;;5049426;28;20041;-76
2023/02/28 03:46:57;;;;;;;4.22;3.15;;;;;;;;;;5071051;28;20746;-71
2023/02/28 03:49:23;;;;;;;4.85;3.38;;;;;;;;;;5037663;28;20021;-77
2023/02/28 03:51:48;;;;;;;3.42;2.85;;;;;;;;;;5053304;28;20070;-76
2023/02/28 03:54:15;;;;;;;3.63;3.05;;;;;;;;;;5054240;28;20088;-74
2023/02/28 03:56:43;;;;;;;4.72;3.30;;;;;;;;;;5031052;28;20025;-77
2023/02/28 03:59:22;;;;;;;4.68;3.25;;;;;;;;;;5049867;28;20055;-69
2023/02/28 04:01:48;;;;;;;4.00;3.17;;;;;;;;;;5047568;28;20043;-72
2023/02/28 04:04:13;;;;;;;4.18;3.40;;;;;;;;;;5050544;28;20551;-71
2023/02/28 04:06:39;;;;;;;4.70;3.60;;;;;;;;;;5055094;28;20420;-74
2023/02/28 04:09:04;;;;;;;5.28;3.50;;;;;;;;;;5070685;28;20279;-69
2023/02/28 04:11:37;;;;;;;5.10;3.55;;;;;;;;;;5067311;28;20024;-78
2023/02/28 04:14:03;;;;;;;4.28;3.28;;;;;;;;;;5048953;28;20048;-70
2023/02/28 04:16:29;;;;;;;4.68;3.65;;;;;;;;;;5051138;28;20485;-79
2023/02/28 04:19:03;;;;;;;4.38;3.30;;;;;;;;;;5035454;28;20054;-73
2023/02/28 04:21:29;;;;;;;4.70;3.35;;;;;;;;;;5053054;28;20052;-73
2023/02/28 04:23:54;;;;;;;4.75;3.50;;;;;;;;;;5060276;28;20052;-74
2023/02/28 04:26:19;;;;;;;4.13;3.35;;;;;;;;;;5058221;28;20091;-70
2023/02/28 04:28:45;;;;;;;4.38;3.30;;;;;;;;;;5071084;28;20432;-75
2023/02/28 04:31:10;;;;;;;4.13;3.50;;;;;;;;;;5052160;28;20036;-77
2023/02/28 04:33:36;;;;;;;4.32;3.15;;;;;;;;;;5046511;28;20341;-75
2023/02/28 04:36:05;;;;;;;4.65;3.17;;;;;;;;;;5041925;28;20022;-78
2023/02/28 04:38:37;;;;;;;5.13;3.70;;;;;;;;;;5069096;28;20067;-74
2023/02/28 04:41:02;;;;;;;4.10;3.20;;;;;;;;;;5068867;28;20036;-71
2023/02/28 04:43:27;;;;;;;4.82;3.60;;;;;;;;;;5041860;28;20503;-75
2023/02/28 04:45:56;;;;;;;4.03;3.30;;;;;;;;;;5069473;28;20123;-69
2023/02/28 04:48:21;;;;;;;4.57;3.60;;;;;;;;;;5053624;28;20036;-74
2023/02/28 04:50:46;;;;;;;3.95;3.35;;;;;;;;;;5033516;28;20485;-71
2023/02/28 04:53:12;;;;;;;5.17;3.97;;;;;;;;;;5039636;28;20424;-79
2023/02/28 04:55:39;;;;;;;4.10;3.27;;;;;;;;;;5038798;28;20373;-78
2023/02/28 04:58:05;;;;;;;4.40;3.53;;;;;;;;;;5068370;28;20173;-71
2023/02/28 05:00:30;;;;;;;4.45;3.47;;;;;;;;;;5046762;28;20079;-66
2023/02/28 05:02:55;;;;;;;5.13;3.90;;;;;;;;;;5054560;28;20032;-78
2023/02/28 05:05:20;;;;;;;5.33;3.67;;;;;;;;;;5046791;28;20303;-78
2023/02/28 05:07:46;;;;;;;5.47;3.47;;;;;;;;;;5067925;28;20804;-75
2023/02/28 05:10:11;;;;;;;4.83;3.77;;;;;;;;;;5052090;28;20673;-68
2023/02/28 05:12:36;;;;;;;4.72;3.75;;;;;;;;;;5051717;28;20255;-74
2023/02/28 05:15:02;;;;;;;6.78;4.30;;;;;;;;;;5065121;28;20441;-70
2023/02/28 05:17:27;;;;;;;5.32;3.90;;;;;;;;;;5047809;28;20024;-69
2023/02/28 05:19:53;;;;;;;5.07;3.85;;;;;;;;;;5064460;28;20070;-73
2023/02/28 05:22:18;;;;;;;4.77;3.47;;;;;;;;;;5065784;28;20012;-72
2023/02/28 05:24:43;;;;;;;5.47;3.67;;;;;;;;;;5065310;28;20686;-73
2023/02/28 05:27:08;;;;;;;5.07;3.60;;;;;;;;;;5066935;28;20396;-72
2023/02/28 05:29:34;;;;;;;5.47;3.90;;;;;;;;;;5047087;28;20372;-76
2023/02/28 05:31:59;;;;;;;5.07;3.40;;;;;;;;;;5049425;28;20066;-73
2023/02/28 05:34:24;;;;;;;4.87;3.80;;;;;;;;;;5049458;28;20037;-69
2023/02/28 05:36:49;;;;;;;4.83;3.80;;;;;;;;;;5065651;28;20943;-70
2023/02/28 05:39:15;;;;;;;5.13;3.77;;;;;;;;;;5062086;28;20266;-72
2023/02/28 05:41:40;;;;;;;5.97;4.15;;;;;;;;;;5067355;28;20020;-72
2023/02/28 05:44:06;;;;;;;5.82;3.22;;;;;;;;;;5035016;28;20661;-74
2023/02/28 05:46:31;;;;;;;5.65;3.78;;;;;;;;;;5066560;28;20489;-72
2023/02/28 05:48:59;;;;;;;5.03;3.83;;;;;;;;;;5058294;28;20165;-69
2023/02/28 05:51:24;;;;;;;5.88;4.32;;;;;;;;;;5051112;28;20048;-68
2023/02/28 05:53:50;;;;;;;5.00;3.77;;;;;;;;;;5041230;28;20542;-74
2023/02/28 05:56:15;;;;;;;5.13;3.97;;;;;;;;;;5061802;28;20028;-71
2023/02/28 05:58:40;;;;;;;4.80;3.50;;;;;;;;;;5054367;28;20048;-65
2023/02/28 06:01:20;;;;;;;4.97;3.83;;;;;;;;;;5060124;28;20320;-66
2023/02/28 06:03:46;;;;;;;4.88;3.83;;;;;;;;;;5037818;28;20432;-73
2023/02/28 06:06:11;;;;;;;4.87;3.53;;;;;;;;;;5027259;28;20036;-74
2023/02/28 06:08:36;;;;;;;5.73;3.90;;;;;;;;;;5048393;28;20028;-65
2023/02/28 06:11:04;;;;;;;5.33;3.93;;;;;;;;;;5042691;28;20321;-72
2023/02/28 06:13:30;;;;;;;5.40;4.00;;;;;;;;;;5032257;28;20077;-72
2023/02/28 06:15:55;;;;;;;5.90;4.20;;;;;;;;;;5066177;28;20037;-72
2023/02/28 06:18:20;;;;;;;6.00;4.27;;;;;;;;;;5066595;28;20455;-61
2023/02/28 06:20:52;;;;;;;4.90;3.70;;;;;;;;;;5063431;28;20559;-73
2023/02/28 06:23:18;;;;;;;5.65;3.75;;;;;;;;;;5062710;28;20298;-70
2023/02/28 06:25:44;;;;;;;4.57;3.70;;;;;;;;;;5038736;28;20044;-74
2023/02/28 06:28:10;;;;;;;5.88;3.90;;;;;;;;;;5057363;28;20294;-74
2023/02/28 06:30:36;;;;;;;5.82;3.90;;;;;;;;;;5058454;28;20037;-75
2023/02/28 06:33:01;;;;;;;5.13;3.70;;;;;;;;;;5051251;28;20116;-72
2023/02/28 06:35:27;;;;;;;4.80;3.67;;;;;;;;;;5029671;28;21312;-72
2023/02/28 06:37:52;;;;;;;6.25;4.35;;;;;;;;;;5064397;28;20274;-72
2023/02/28 06:40:17;;;;;;;6.00;4.28;;;;;;;;;;5051007;28;20316;-79
2023/02/28 06:42:43;;;;;;;6.27;4.00;;;;;;;;;;5054583;28;20044;-74
2023/02/28 06:45:09;;;;;;;5.13;4.20;;;;;;;;;;5040620;28;20381;-76
2023/02/28 06:47:34;;;;;;;5.03;3.63;;;;;;;;;;5069918;28;20032;-72
2023/02/28 06:50:01;;;;;;;5.85;4.03;;;;;;;;;;5055947;28;20487;-73
2023/02/28 06:52:26;;;;;;;5.30;4.15;;;;;;;;;;5047445;28;20044;-71
2023/02/28 06:54:59;;;;;;;6.65;4.75;;;;;;;;;;5032047;28;20069;-72
2023/02/28 06:57:26;;;;;;;5.55;3.97;;;;;;;;;;5042105;28;20081;-72
2023/02/28 06:59:52;;;;;;;5.90;4.35;;;;;;;;;;5036203;28;20040;-70
2023/02/28 07:02:17;;;;;;;6.83;4.43;;;;;;;;;;5049586;28;20436;-74
2023/02/28 07:04:44;;;;;;;7.17;4.60;;;;;;;;;;5030611;28;20443;-74
2023/02/28 07:07:09;;;;;;;6.32;4.30;;;;;;;;;;5028264;28;20291;-71
2023/02/28 07:09:34;;;;;;;6.45;4.03;;;;;;;;;;5056640;28;20031;-74
2023/02/28 07:12:00;;;;;;;6.40;4.30;;;;;;;;;;5039688;28;20029;-74
2023/02/28 07:14:25;;;;;;;6.80;4.30;;;;;;;;;;5042144;28;20032;-68
2023/02/28 07:16:51;;;;;;;6.97;3.92;;;;;;;;;;5044866;28;20113;-72
2023/02/28 07:19:16;;;;;;;5.72;4.28;;;;;;;;;;5068304;28;20032;-72
2023/02/28 07:21:41;;;;;;;6.27;4.50;;;;;;;;;;5067179;28;20116;-73
2023/02/28 07:24:06;;;;;;;8.07;4.60;;;;;;;;;;5068562;28;20303;-72
2023/02/28 07:26:34;;;;;;;6.53;3.90;;;;;;;;;;5050506;28;20036;-73
2023/02/28 07:28:59;;;;;;;5.03;3.95;;;;;;;;;;5063756;28;20113;-73
2023/02/28 07:31:24;;;;;;;6.47;4.57;;;;;;;;;;5066879;28;20571;-72
2023/02/28 07:33:49;;;;;;;6.67;4.33;;;;;;;;;;5040918;28;20120;-70
2023/02/28 07:36:18;;;;;;;5.13;4.10;;;;;;;;;;5046751;28;20290;-71
2023/02/28 07:38:44;;;;;;;7.03;5.07;;;;;;;;;;5042291;28;20785;-72
2023/02/28 07:41:09;;;;;;;6.10;4.15;;;;;;;;;;5052002;28;20064;-72
2023/02/28 07:43:34;;;;;;;6.05;4.38;;;;;;;;;;5069225;28;20552;-74
2023/02/28 07:46:03;;;;;;;6.80;4.95;;;;;;;;;;5067776;28;20029;-72
2023/02/28 07:48:28;;;;;;;6.68;4.80;;;;;;;;;;5068907;28;20496;-69
2023/02/28 07:50:55;;;;;;;6.17;4.60;;;;;;;;;;5063678;28;20057;-71
2023/02/28 07:53:20;;;;;;;6.28;4.38;;;;;;;;;;5063717;28;20058;-72
2023/02/28 07:55:45;;;;;;;5.75;4.57;;;;;;;;;;5032991;28;20044;-73
2023/02/28 07:58:11;;;;;;;6.97;4.47;;;;;;;;;;5038166;28;20043;-74
2023/02/28 08:00:36;;;;;;;5.87;4.43;;;;;;;;;;5030635;28;20043;-75
2023/02/28 08:03:01;;;;;;;6.63;4.60;;;;;;;;;;5026074;28;20279;-72
2023/02/28 08:05:26;;;;;;;6.07;4.10;;;;;;;;;;5037311;28;20820;-70
2023/02/28 08:07:53;;;;;;;5.60;4.18;;;;;;;;;;5034189;28;20298;-74
2023/02/28 08:10:18;;;;;;;6.68;4.57;;;;;;;;;;5069143;28;20028;-72
2023/02/28 08:12:43;;;;;;;6.20;4.67;;;;;;;;;;5048252;28;20037;-73
2023/02/28 08:15:09;;;;;;;6.77;4.93;;;;;;;;;;5050124;28;20456;-70
2023/02/28 08:17:34;;;;;;;5.68;4.22;;;;;;;;;;5050723;28;20044;-74
2023/02/28 08:19:59;;;;;;;5.60;4.28;;;;;;;;;;5051546;28;20035;-70
2023/02/28 08:22:24;;;;;;;5.77;4.47;;;;;;;;;;5043314;28;20195;-73
2023/02/28 08:24:50;;;;;;;6.43;4.30;;;;;;;;;;5050145;28;20318;-71
2023/02/28 08:27:15;;;;;;;6.70;4.63;;;;;;;;;;5052454;28;20863;-72
2023/02/28 08:29:40;;;;;;;5.53;4.30;;;;;;;;;;5046639;28;20306;-69
2023/02/28 08:32:06;;;;;;;5.57;4.07;;;;;;;;;;5039826;28;20275;-69
2023/02/28 08:34:31;;;;;;;5.95;4.38;;;;;;;;;;5048523;28;20453;-72
2023/02/28 08:36:57;;;;;;;7.70;5.07;;;;;;;;;;5020350;28;20040;-69
2023/02/28 08:39:22;;;;;;;6.30;4.40;;;;;;;;;;5069302;28;20040;-71
2023/02/28 08:41:47;;;;;;;6.60;5.27;;;;;;;;;;5023196;28;20044;-70
2023/02/28 08:44:12;;;;;;;5.83;4.40;;;;;;;;;;5059000;28;20890;-70
2023/02/28 08:46:38;;;;;;;6.00;4.30;;;;;;;;;;5036095;28;20056;-70
2023/02/28 08:49:03;;;;;;;6.00;4.65;;;;;;;;;;5065046;28;20286;-71
2023/02/28 08:51:28;;;;;;;6.27;4.57;;;;;;;;;;5062678;28;20501;-70
2023/02/28 08:53:54;;;;;;;5.87;4.23;;;;;;;;;;5031916;28;20517;-70
2023/02/28 08:56:19;;;;;;;6.00;4.38;;;;;;;;;;5041533;28;20375;-71
2023/02/28 08:58:45;;;;;;;6.78;3.80;;;;;;;;;;5067389;28;20521;-72
2023/02/28 09:01:12;;;;;;;6.55;4.35;;;;;;;;;;5067814;28;20041;-72
2023/02/28 09:03:37;;;;;;;5.47;4.43;;;;;;;;;;5047975;28;20093;-71
2023/02/28 09:06:02;;;;;;;6.40;4.43;;;;;;;;;;5030122;28;20025;-71
2023/02/28 09:08:28;;;;;;;6.30;4.57;;;;;;;;;;5063475;28;20060;-75
2023/02/28 09:10:54;;;;;;;5.65;4.20;;;;;;;;;;5029130;28;20090;-72
2023/02/28 09:13:19;;;;;;;6.28;4.65;;;;;;;;;;5035319;28;20515;-70
2023/02/28 09:15:44;;;;;;;6.35;4.88;;;;;;;;;;5046432;28;20037;-71
2023/02/28 09:18:10;;;;;;;5.85;4.75;;;;;;;;;;5028331;28;20110;-72
2023/02/28 09:20:39;;;;;;;7.03;4.65;;;;;;;;;;5062520;28;20036;-70
2023/02/28 09:23:05;;;;;;;7.38;4.50;;;;;;;;;;5048850;28;20021;-70
2023/02/28 09:25:30;;;;;;;5.95;4.53;;;;;;;;;;5027240;28;20049;-72
2023/02/28 09:27:55;;;;;;;5.37;4.27;;;;;;;;;;5045624;28;20056;-70
2023/02/28 09:30:20;;;;;;;6.13;4.43;;;;;;;;;;5062102;28;20029;-72
2023/02/28 09:32:51;;;;;;;5.03;4.20;;;;;;;;;;5050139;28;21574;-72
2023/02/28 09:35:17;;;;;;;8.15;5.25;;;;;;;;;;5063568;28;20319;-72
2023/02/28 09:37:42;;;;;;;4.95;3.85;;;;;;;;;;5065720;28;20076;-71
2023/02/28 09:40:09;;;;;;;7.63;5.03;;;;;;;;;;5063115;28;20047;-71
2023/02/28 09:42:34;;;;;;;6.63;5.00;;;;;;;;;;5038990;28;20305;-72
2023/02/28 09:45:05;;;;;;;5.97;4.50;;;;;;;;;;5058960;28;20044;-68
2023/02/28 09:47:33;;;;;;;6.53;4.70;;;;;;;;;;5061748;28;20039;-72
2023/02/28 09:49:59;;;;;;;6.50;4.90;;;;;;;;;;5062253;28;20328;-70
2023/02/28 09:52:27;;;;;;;6.75;4.85;;;;;;;;;;5057632;28;20403;-67
2023/02/28 09:54:53;;;;;;;7.68;5.22;;;;;;;;;;5037203;28;20169;-71
2023/02/28 09:57:38;;;;;;;5.78;4.70;;;;;;;;;;5062597;28;20580;-68
2023/02/28 10:00:13;;;;;;;11.13;5.18;;;;;;;;;;5034533;28;20048;-70
2023/02/28 10:02:38;;;;;;;6.55;4.63;;;;;;;;;;5061631;28;20070;-68
2023/02/28 10:05:08;;;;;;;6.53;4.80;;;;;;;;;;5054960;28;20053;-69
2023/02/28 10:07:33;;;;;;;;;;;;;;;;;;5019452;28;20508;-70
2023/02/28 10:09:59;;;;;;;6.27;4.67;;;;;;;;;;5065214;28;19916;-70
2023/02/28 10:12:24;;;;;;;7.68;5.18;;;;;;;;;;5046825;28;20036;-70
2023/02/28 10:14:50;;;;;;;6.95;5.15;;;;;;;;;;5041899;28;20318;-69
2023/02/28 10:17:19;;;;;;;5.72;4.53;;;;;;;;;;5030780;28;20614;-70
2023/02/28 10:19:53;;;;;;;6.55;4.88;;;;;;;;;;5063284;28;20058;-69
2023/02/28 10:22:24;;;;;;;6.32;5.10;;;;;;;;;;5048203;28;20158;-71
2023/02/28 10:24:51;;;;;;;13.32;5.63;;;;;;;;;;5048632;28;20095;-69
2023/02/28 10:27:23;;;;;;;6.95;5.03;;;;;;;;;;5064625;28;20050;-69
2023/02/28 10:29:49;;;;;;;6.95;4.80;;;;;;;;;;5023883;28;20382;-70
2023/02/28 10:32:27;;;;;;;7.82;5.05;;;;;;;;;;5052966;28;20060;-69
2023/02/28 10:34:55;;;;;;;6.18;4.63;;;;;;;;;;5029101;28;20054;-69
2023/02/28 10:37:21;;;;;;;7.28;4.68;;;;;;;;;;5063123;28;20525;-70
2023/02/28 10:39:46;;;;;;;6.87;4.63;;;;;;;;;;5051037;28;20043;-69
2023/02/28 10:42:21;;;;;;;6.68;5.10;;;;;;;;;;5070351;28;20115;-68
2023/02/28 10:44:47;;;;;;;6.85;4.68;;;;;;;;;;5070091;28;20052;-68
2023/02/28 10:47:14;;;;;;;6.82;4.68;;;;;;;;;;5069194;28;20028;-69
2023/02/28 10:49:41;;;;;;;6.75;4.82;;;;;;;;;;5052722;28;20051;-69
2023/02/28 10:52:07;;;;;;;5.93;4.70;;;;;;;;;;5050042;28;20334;-69
2023/02/28 10:54:35;;;;;;;6.35;4.72;;;;;;;;;;5032562;28;20025;-68
2023/02/28 10:57:08;;;;;;;6.32;4.35;;;;;;;;;;5047323;28;20051;-70
2023/02/28 10:59:33;;;;;;;6.57;4.57;;;;;;;;;;5051388;28;20119;-69
2023/02/28 11:01:58;;;;;;;7.80;4.75;;;;;;;;;;5052715;28;20140;-69
2023/02/28 11:04:32;;;;;;;6.93;4.53;;;;;;;;;;5069825;28;20431;-69
2023/02/28 11:07:00;;;;;;;7.72;5.10;;;;;;;;;;5069609;28;20120;-69
2023/02/28 11:09:25;;;;;;;6.72;4.75;;;;;;;;;;5029682;28;20382;-71
2023/02/28 11:11:52;;;;;;;6.33;4.50;;;;;;;;;;5061553;28;20105;-69
2023/02/28 11:14:24;;;;;;;6.90;4.97;;;;;;;;;;5043291;28;20037;-67
2023/02/28 11:16:49;;;;;;;7.57;4.93;;;;;;;;;;5051836;28;20032;-69
2023/02/28 11:19:17;;;;;;;7.63;4.70;;;;;;;;;;5038872;28;20040;-70
2023/02/28 11:21:45;;;;;;;7.13;5.00;;;;;;;;;;5069421;28;20039;-72
2023/02/28 11:24:16;;;;;;;7.80;4.88;;;;;;;;;;5045456;28;20182;-70
2023/02/28 11:26:43;;;;;;;7.40;4.72;;;;;;;;;;5068462;28;20478;-73
2023/02/28 11:29:28;;;;;;;8.23;5.00;;;;;;;;;;5039844;28;20117;-70
2023/02/28 11:32:11;;;;;;;9.25;5.00;;;;;;;;;;5065349;28;20036;-70
2023/02/28 11:34:37;;;;;;;7.53;5.20;;;;;;;;;;5040672;28;20105;-70
2023/02/28 11:37:06;;;;;;;7.10;4.75;;;;;;;;;;5034732;28;20024;-71
2023/02/28 11:39:32;;;;;;;7.93;4.85;;;;;;;;;;5069468;28;20043;-70
2023/02/28 11:42:12;;;;;;;8.15;4.88;;;;;;;;;;5049500;28;20425;-70
2023/02/28 11:44:56;;;;;;;8.23;4.85;;;;;;;;;;5067342;28;20054;-72
2023/02/28 11:47:42;;;;;;;6.55;4.57;;;;;;;;;;5067081;28;20433;-70
2023/02/28 11:50:27;;;;;;;7.00;5.32;;;;;;;;;;5068091;28;20515;-70
2023/02/28 11:52:53;;;;;;;6.38;4.80;;;;;;;;;;5049012;28;20052;-72
2023/02/28 11:55:38;;;;;;;7.25;4.55;;;;;;;;;;5034508;28;20029;-71
2023/02/28 11:58:13;;;;;;;6.55;4.90;;;;;;;;;;5036322;28;20558;-72
2023/02/28 12:00:40;;;;;;;9.27;5.30;;;;;;;;;;5067684;28;20028;-70
2023/02/28 12:03:24;;;;;;;5.95;4.65;;;;;;;;;;5041343;28;20623;-70
2023/02/28 12:06:01;;;;;;;6.60;4.88;;;;;;;;;;5066072;28;20056;-69
2023/02/28 12:08:35;;;;;;;7.22;5.20;;;;;;;;;;5060823;28;20079;-71
2023/02/28 12:11:23;;;;;;;6.45;4.65;;;;;;;;;;5046997;28;20036;-74
2023/02/28 12:13:49;;;;;;;7.32;4.80;;;;;;;;;;5058694;28;20178;-72
2023/02/28 12:16:17;;;;;;;7.72;5.00;;;;;;;;;;5051299;28;20466;-68
2023/02/28 12:18:55;;;;;;;7.35;5.05;;;;;;;;;;5064814;28;20037;-73
2023/02/28 12:21:27;;;;;;;6.85;5.18;;;;;;;;;;5050341;28;20076;-73
2023/02/28 12:23:55;;;;;;;6.20;4.70;;;;;;;;;;5067184;28;20036;-72
2023/02/28 12:26:39;;;;;;;7.20;4.80;;;;;;;;;;5068153;28;20132;-72
2023/02/28 12:29:10;;;;;;;7.25;4.88;;;;;;;;;;5068167;28;20036;-74
2023/02/28 12:31:40;;;;;;;6.68;4.88;;;;;;;;;;5065531;28;20040;-74
2023/02/28 12:34:07;;;;;;;7.68;4.85;;;;;;;;;;5049914;28;20032;-72
2023/02/28 12:36:32;;;;;;;7.05;5.20;;;;;;;;;;5065047;28;20048;-73
2023/02/28 12:39:08;;;;;;;6.75;4.78;;;;;;;;;;5047455;28;20047;-74
2023/02/28 12:41:39;;;;;;;7.47;5.00;;;;;;;;;;5059051;28;20148;-71
2023/02/28 12:44:06;;;;;;;8.32;5.15;;;;;;;;;;5030067;28;20044;-71
2023/02/28 12:46:36;;;;;;;7.53;4.65;;;;;;;;;;5049637;28;20098;-70
2023/02/28 12:49:15;;;;;;;9.85;5.82;;;;;;;;;;5049352;28;20131;-68
2023/02/28 12:51:41;;;;;;;;;;;;;;;;;;5031831;28;20083;-69
2023/02/28 12:54:18;;;;;;;6.72;4.85;;;;;;;;;;5070020;28;19908;-71
2023/02/28 12:56:53;;;;;;;7.68;5.40;;;;;;;;;;5065747;28;20033;-71
2023/02/28 12:59:23;;;;;;;8.05;5.22;;;;;;;;;;5067357;28;20047;-71
2023/02/28 13:01:48;;;;;;;6.72;4.90;;;;;;;;;;5041247;28;20052;-71
2023/02/28 13:04:13;;;;;;;7.83;5.40;;;;;;;;;;5049255;28;20560;-71
2023/02/28 13:06:59;;;;;;;6.87;4.97;;;;;;;;;;5067654;28;20336;-71
2023/02/28 13:09:25;;;;;;;8.25;5.47;;;;;;;;;;5037219;28;20123;-70
2023/02/28 13:11:53;;;;;;;7.82;4.82;;;;;;;;;;5065623;28;20528;-70
2023/02/28 13:14:18;;;;;;;7.40;5.43;;;;;;;;;;5067447;28;20169;-70
2023/02/28 13:16:48;;;;;;;6.90;5.43;;;;;;;;;;5068588;28;20384;-69
2023/02/28 13:19:16;;;;;;;7.68;5.57;;;;;;;;;;5034535;28;20082;-72
2023/02/28 13:21:42;;;;;;;6.43;4.80;;;;;;;;;;5047430;28;20119;-75
2023/02/28 13:24:07;;;;;;;7.22;5.25;;;;;;;;;;5025659;28;20118;-69
2023/02/28 13:26:53;;;;;;;7.10;5.20;;;;;;;;;;5036839;28;20044;-71
2023/02/28 13:29:28;;;;;;;7.72;5.05;;;;;;;;;;5003619;28;20032;-70
2023/02/28 13:32:05;;;;;;;8.27;5.43;;;;;;;;;;5036331;28;20517;-73
2023/02/28 13:34:31;;;;;;;7.25;5.32;;;;;;;;;;5057295;28;20050;-73
2023/02/28 13:37:15;;;;;;;5.90;4.75;;;;;;;;;;5041962;28;20033;-71
2023/02/28 13:39:40;;;;;;;6.85;4.88;;;;;;;;;;5055063;28;20218;-73
2023/02/28 13:42:21;;;;;;;8.03;5.17;;;;;;;;;;5054913;28;20100;-71
2023/02/28 13:45:09;;;;;;;7.93;5.35;;;;;;;;;;5040543;28;20480;-69
2023/02/28 13:47:34;;;;;;;6.70;4.82;;;;;;;;;;5048141;28;20074;-67
2023/02/28 13:50:18;;;;;;;10.35;6.00;;;;;;;;;;5054236;28;20482;-69
2023/02/28 13:52:56;;;;;;;7.70;5.07;;;;;;;;;;5041876;28;20599;-72
2023/02/28 13:55:21;;;;;;;7.68;5.20;;;;;;;;;;5040413;28;20239;-71
2023/02/28 13:57:56;;;;;;;6.90;5.27;;;;;;;;;;5055797;28;20021;-73
2023/02/28 14:00:31;;;;;;;7.90;5.28;;;;;;;;;;5040111;28;20327;-75
2023/02/28 14:03:15;;;;;;;7.47;5.57;;;;;;;;;;5039231;28;20215;-73
2023/02/28 14:05:41;;;;;;;6.50;5.30;;;;;;;;;;5052532;28;20045;-75
2023/02/28 14:08:06;;;;;;;7.45;5.10;;;;;;;;;;5041304;28;20039;-69
2023/02/28 14:10:32;;;;;;;7.10;5.33;;;;;;;;;;5037664;28;20052;-75
2023/02/28 14:13:02;;;;;;;5.93;5.07;;;;;;;;;;5022594;28;20445;-70
2023/02/28 14:15:28;;;;;;;9.25;5.43;;;;;;;;;;5041012;28;20551;-69
2023/02/28 14:17:54;;;;;;;7.50;5.15;;;;;;;;;;5053550;28;20033;-70
2023/02/28 14:20:20;;;;;;;7.05;5.38;;;;;;;;;;5034004;28;20037;-71
2023/02/28 14:23:11;;;;;;;8.00;5.20;;;;;;;;;;5022874;28;20043;-71
2023/02/28 14:25:39;;;;;;;8.80;5.50;;;;;;;;;;5031036;28;20080;-71
2023/02/28 14:28:10;;;;;;;7.57;5.25;;;;;;;;;;5034534;28;20035;-72
2023/02/28 14:30:55;;;;;;;8.98;5.55;;;;;;;;;;5039746;28;20041;-73
2023/02/28 14:33:23;;;;;;;7.97;5.20;;;;;;;;;;5053591;28;20045;-72
2023/02/28 14:36:07;;;;;;;7.55;5.35;;;;;;;;;;5036521;28;20029;-70
2023/02/28 14:38:46;;;;;;;6.68;4.78;;;;;;;;;;5052699;28;20040;-70
2023/02/28 14:41:14;;;;;;;6.65;4.65;;;;;;;;;;5020687;28;20071;-74
2023/02/28 14:43:42;;;;;;;7.57;5.32;;;;;;;;;;5018450;28;20094;-70
2023/02/28 14:46:07;;;;;;;6.75;5.05;;;;;;;;;;5042057;28;20043;-72
2023/02/28 14:48:33;;;;;;;6.37;5.10;;;;;;;;;;5059553;28;20660;-69
2023/02/28 14:50:59;;;;;;;7.18;5.55;;;;;;;;;;5024550;28;20291;-70